sensor_id;sensor_type;location;lat;lon;timestamp;P1;durP1;ratioP1;P2;durP2;ratioP2
61385;SDS011;47256;18.904;-99.054;2022-08-19T00:02:01;10.15;;;6.78;;
61385;SDS011;47256;18.904;-99.054;2022-08-19T00:04:30;11.85;;;8.32;;
61385;SDS011;47256;18.904;-99.054;2022-08-19T00:07:03;9.85;;;6.95;;
61385;SDS011;47256;18.904;-99.054;2022-08-19T00:09:31;12.77;;;7.20;;
61385;SDS011;47256;18.904;-99.054;2022-08-19T00:11:59;7.45;;;6.32;;
61385;SDS011;47256;18.904;-99.054;2022-08-19T00:14:27;14.65;;;7.82;;
61385;SDS011;47256;18.904;-99.054;2022-08-19T00:16:56;20.42;;;8.27;;
61385;SDS011;47256;18.904;-99.054;2022-08-19T00:19:24;19.10;;;9.15;;
61385;SDS011;47256;18.904;-99.054;2022-08-19T00:21:52;13.30;;;10.07;;
61385;SDS011;47256;18.904;-99.054;2022-08-19T00:24:20;25.67;;;16.17;;
61385;SDS011;47256;18.904;-99.054;2022-08-19T00:26:47;30.70;;;15.40;;
61385;SDS011;47256;18.904;-99.054;2022-08-19T00:29:16;34.15;;;13.25;;
61385;SDS011;47256;18.904;-99.054;2022-08-19T00:31:45;19.75;;;9.30;;
61385;SDS011;47256;18.904;-99.054;2022-08-19T00:34:14;21.63;;;10.52;;
61385;SDS011;47256;18.904;-99.054;2022-08-19T00:36:41;15.98;;;9.65;;
61385;SDS011;47256;18.904;-99.054;2022-08-19T00:39:09;16.63;;;9.82;;
61385;SDS011;47256;18.904;-99.054;2022-08-19T00:41:36;12.25;;;9.30;;
61385;SDS011;47256;18.904;-99.054;2022-08-19T00:44:05;16.08;;;9.45;;
61385;SDS011;47256;18.904;-99.054;2022-08-19T00:46:35;14.52;;;8.25;;
61385;SDS011;47256;18.904;-99.054;2022-08-19T00:49:18;10.82;;;7.47;;
61385;SDS011;47256;18.904;-99.054;2022-08-19T00:52:00;20.05;;;7.72;;
61385;SDS011;47256;18.904;-99.054;2022-08-19T00:54:35;10.85;;;7.75;;
61385;SDS011;47256;18.904;-99.054;2022-08-19T00:57:04;16.67;;;8.25;;
61385;SDS011;47256;18.904;-99.054;2022-08-19T00:59:35;15.35;;;9.02;;
61385;SDS011;47256;18.904;-99.054;2022-08-19T01:02:04;22.38;;;10.65;;
61385;SDS011;47256;18.904;-99.054;2022-08-19T01:04:34;27.48;;;10.80;;
61385;SDS011;47256;18.904;-99.054;2022-08-19T01:07:01;22.58;;;11.27;;
61385;SDS011;47256;18.904;-99.054;2022-08-19T01:09:29;27.50;;;11.65;;
61385;SDS011;47256;18.904;-99.054;2022-08-19T01:11:57;30.50;;;16.60;;
61385;SDS011;47256;18.904;-99.054;2022-08-19T01:14:24;33.17;;;16.65;;
61385;SDS011;47256;18.904;-99.054;2022-08-19T01:16:52;25.88;;;18.08;;
61385;SDS011;47256;18.904;-99.054;2022-08-19T01:19:24;38.35;;;24.25;;
61385;SDS011;47256;18.904;-99.054;2022-08-19T01:22:04;53.67;;;30.23;;
61385;SDS011;47256;18.904;-99.054;2022-08-19T01:24:38;48.55;;;24.35;;
61385;SDS011;47256;18.904;-99.054;2022-08-19T01:27:05;42.55;;;21.95;;
61385;SDS011;47256;18.904;-99.054;2022-08-19T01:29:36;31.42;;;19.45;;
61385;SDS011;47256;18.904;-99.054;2022-08-19T01:32:06;24.67;;;13.88;;
61385;SDS011;47256;18.904;-99.054;2022-08-19T01:34:38;14.13;;;8.73;;
61385;SDS011;47256;18.904;-99.054;2022-08-19T01:37:06;15.73;;;7.40;;
61385;SDS011;47256;18.904;-99.054;2022-08-19T01:39:38;12.27;;;6.00;;
61385;SDS011;47256;18.904;-99.054;2022-08-19T01:42:07;8.98;;;6.78;;
61385;SDS011;47256;18.904;-99.054;2022-08-19T01:44:38;9.70;;;7.50;;
61385;SDS011;47256;18.904;-99.054;2022-08-19T01:47:08;11.30;;;6.65;;
61385;SDS011;47256;18.904;-99.054;2022-08-19T01:49:36;10.73;;;8.35;;
61385;SDS011;47256;18.904;-99.054;2022-08-19T01:52:05;13.60;;;7.18;;
61385;SDS011;47256;18.904;-99.054;2022-08-19T01:54:33;12.32;;;8.52;;
61385;SDS011;47256;18.904;-99.054;2022-08-19T01:57:01;23.25;;;10.00;;
61385;SDS011;47256;18.904;-99.054;2022-08-19T01:59:34;25.73;;;10.60;;
61385;SDS011;47256;18.904;-99.054;2022-08-19T02:02:04;17.77;;;8.55;;
61385;SDS011;47256;18.904;-99.054;2022-08-19T02:04:36;14.85;;;8.73;;
61385;SDS011;47256;18.904;-99.054;2022-08-19T02:07:06;18.10;;;11.02;;
61385;SDS011;47256;18.904;-99.054;2022-08-19T02:09:36;21.20;;;12.32;;
61385;SDS011;47256;18.904;-99.054;2022-08-19T02:12:06;18.38;;;11.48;;
61385;SDS011;47256;18.904;-99.054;2022-08-19T02:14:38;23.15;;;13.05;;
61385;SDS011;47256;18.904;-99.054;2022-08-19T02:17:08;36.90;;;23.00;;
61385;SDS011;47256;18.904;-99.054;2022-08-19T02:19:37;33.08;;;16.38;;
61385;SDS011;47256;18.904;-99.054;2022-08-19T02:22:05;18.08;;;11.38;;
61385;SDS011;47256;18.904;-99.054;2022-08-19T02:24:33;14.95;;;9.43;;
61385;SDS011;47256;18.904;-99.054;2022-08-19T02:27:02;14.30;;;9.57;;
61385;SDS011;47256;18.904;-99.054;2022-08-19T02:29:32;16.17;;;8.40;;
61385;SDS011;47256;18.904;-99.054;2022-08-19T02:32:00;17.42;;;9.35;;
61385;SDS011;47256;18.904;-99.054;2022-08-19T02:34:28;12.23;;;7.40;;
61385;SDS011;47256;18.904;-99.054;2022-08-19T02:36:57;19.75;;;12.18;;
61385;SDS011;47256;18.904;-99.054;2022-08-19T02:39:26;38.38;;;17.15;;
61385;SDS011;47256;18.904;-99.054;2022-08-19T02:41:56;27.23;;;15.70;;
61385;SDS011;47256;18.904;-99.054;2022-08-19T02:44:26;28.70;;;15.10;;
61385;SDS011;47256;18.904;-99.054;2022-08-19T02:46:55;21.75;;;10.80;;
61385;SDS011;47256;18.904;-99.054;2022-08-19T02:49:24;19.58;;;11.57;;
61385;SDS011;47256;18.904;-99.054;2022-08-19T02:51:53;24.17;;;11.15;;
61385;SDS011;47256;18.904;-99.054;2022-08-19T02:54:23;21.80;;;13.23;;
61385;SDS011;47256;18.904;-99.054;2022-08-19T02:56:52;18.55;;;12.02;;
61385;SDS011;47256;18.904;-99.054;2022-08-19T02:59:21;20.48;;;12.40;;
61385;SDS011;47256;18.904;-99.054;2022-08-19T03:01:51;24.65;;;11.38;;
61385;SDS011;47256;18.904;-99.054;2022-08-19T03:04:20;12.23;;;6.72;;
61385;SDS011;47256;18.904;-99.054;2022-08-19T03:06:49;15.95;;;5.53;;
61385;SDS011;47256;18.904;-99.054;2022-08-19T03:09:19;11.02;;;4.65;;
61385;SDS011;47256;18.904;-99.054;2022-08-19T03:11:48;11.95;;;3.45;;
61385;SDS011;47256;18.904;-99.054;2022-08-19T03:14:16;6.95;;;3.28;;
61385;SDS011;47256;18.904;-99.054;2022-08-19T03:16:46;10.65;;;3.10;;
61385;SDS011;47256;18.904;-99.054;2022-08-19T03:19:18;4.90;;;2.13;;
61385;SDS011;47256;18.904;-99.054;2022-08-19T03:21:50;14.82;;;2.33;;
61385;SDS011;47256;18.904;-99.054;2022-08-19T03:24:19;7.03;;;2.95;;
61385;SDS011;47256;18.904;-99.054;2022-08-19T03:26:49;6.68;;;1.77;;
61385;SDS011;47256;18.904;-99.054;2022-08-19T03:29:29;5.93;;;3.28;;
61385;SDS011;47256;18.904;-99.054;2022-08-19T03:31:59;9.40;;;2.88;;
61385;SDS011;47256;18.904;-99.054;2022-08-19T03:34:32;8.90;;;2.65;;
61385;SDS011;47256;18.904;-99.054;2022-08-19T03:37:05;5.93;;;2.45;;
61385;SDS011;47256;18.904;-99.054;2022-08-19T03:39:37;3.75;;;1.88;;
61385;SDS011;47256;18.904;-99.054;2022-08-19T03:42:08;6.85;;;1.80;;
61385;SDS011;47256;18.904;-99.054;2022-08-19T03:44:38;8.30;;;2.10;;
61385;SDS011;47256;18.904;-99.054;2022-08-19T03:47:10;5.30;;;2.25;;
61385;SDS011;47256;18.904;-99.054;2022-08-19T03:49:43;4.55;;;2.30;;
61385;SDS011;47256;18.904;-99.054;2022-08-19T03:52:13;24.75;;;10.23;;
61385;SDS011;47256;18.904;-99.054;2022-08-19T03:54:42;79.32;;;29.42;;
61385;SDS011;47256;18.904;-99.054;2022-08-19T03:57:11;62.65;;;26.95;;
61385;SDS011;47256;18.904;-99.054;2022-08-19T03:59:40;50.28;;;22.95;;
61385;SDS011;47256;18.904;-99.054;2022-08-19T04:02:10;88.55;;;41.90;;
61385;SDS011;47256;18.904;-99.054;2022-08-19T04:04:40;48.53;;;23.40;;
61385;SDS011;47256;18.904;-99.054;2022-08-19T04:07:11;44.65;;;21.13;;
61385;SDS011;47256;18.904;-99.054;2022-08-19T04:09:48;15.00;;;5.88;;
61385;SDS011;47256;18.904;-99.054;2022-08-19T04:12:18;4.75;;;2.85;;
61385;SDS011;47256;18.904;-99.054;2022-08-19T04:14:46;5.47;;;3.58;;
61385;SDS011;47256;18.904;-99.054;2022-08-19T04:17:14;8.10;;;3.38;;
61385;SDS011;47256;18.904;-99.054;2022-08-19T04:19:42;30.95;;;12.48;;
61385;SDS011;47256;18.904;-99.054;2022-08-19T04:22:10;25.95;;;12.48;;
61385;SDS011;47256;18.904;-99.054;2022-08-19T04:24:38;15.63;;;6.07;;
61385;SDS011;47256;18.904;-99.054;2022-08-19T04:27:06;7.05;;;4.00;;
61385;SDS011;47256;18.904;-99.054;2022-08-19T04:29:33;12.57;;;4.57;;
61385;SDS011;47256;18.904;-99.054;2022-08-19T04:32:01;9.18;;;3.30;;
61385;SDS011;47256;18.904;-99.054;2022-08-19T04:34:29;6.47;;;2.33;;
61385;SDS011;47256;18.904;-99.054;2022-08-19T04:36:57;7.22;;;2.90;;
61385;SDS011;47256;18.904;-99.054;2022-08-19T04:39:29;4.13;;;2.35;;
61385;SDS011;47256;18.904;-99.054;2022-08-19T04:42:16;6.85;;;3.15;;
61385;SDS011;47256;18.904;-99.054;2022-08-19T04:45:04;15.93;;;5.18;;
61385;SDS011;47256;18.904;-99.054;2022-08-19T04:47:36;12.25;;;6.75;;
61385;SDS011;47256;18.904;-99.054;2022-08-19T04:50:05;19.73;;;8.38;;
61385;SDS011;47256;18.904;-99.054;2022-08-19T04:52:38;16.63;;;7.30;;
61385;SDS011;47256;18.904;-99.054;2022-08-19T04:55:11;19.70;;;7.18;;
61385;SDS011;47256;18.904;-99.054;2022-08-19T04:57:40;14.75;;;6.65;;
61385;SDS011;47256;18.904;-99.054;2022-08-19T05:00:08;11.10;;;4.22;;
61385;SDS011;47256;18.904;-99.054;2022-08-19T05:02:37;11.40;;;4.93;;
61385;SDS011;47256;18.904;-99.054;2022-08-19T05:05:04;13.55;;;5.20;;
61385;SDS011;47256;18.904;-99.054;2022-08-19T05:07:33;12.95;;;5.22;;
61385;SDS011;47256;18.904;-99.054;2022-08-19T05:10:00;5.18;;;3.75;;
61385;SDS011;47256;18.904;-99.054;2022-08-19T05:12:29;6.68;;;4.03;;
61385;SDS011;47256;18.904;-99.054;2022-08-19T05:14:57;8.48;;;4.32;;
61385;SDS011;47256;18.904;-99.054;2022-08-19T05:17:26;13.45;;;4.40;;
61385;SDS011;47256;18.904;-99.054;2022-08-19T05:19:53;9.50;;;4.47;;
61385;SDS011;47256;18.904;-99.054;2022-08-19T05:22:41;12.02;;;4.35;;
61385;SDS011;47256;18.904;-99.054;2022-08-19T05:25:11;11.80;;;4.25;;
61385;SDS011;47256;18.904;-99.054;2022-08-19T05:27:41;9.38;;;4.05;;
61385;SDS011;47256;18.904;-99.054;2022-08-19T05:30:09;7.18;;;3.97;;
61385;SDS011;47256;18.904;-99.054;2022-08-19T05:32:38;9.70;;;4.40;;
61385;SDS011;47256;18.904;-99.054;2022-08-19T05:35:06;6.25;;;3.40;;
61385;SDS011;47256;18.904;-99.054;2022-08-19T05:37:34;9.38;;;4.03;;
61385;SDS011;47256;18.904;-99.054;2022-08-19T05:40:01;7.07;;;3.45;;
61385;SDS011;47256;18.904;-99.054;2022-08-19T05:42:29;14.90;;;3.78;;
61385;SDS011;47256;18.904;-99.054;2022-08-19T05:44:56;7.65;;;3.35;;
61385;SDS011;47256;18.904;-99.054;2022-08-19T05:47:23;8.05;;;3.65;;
61385;SDS011;47256;18.904;-99.054;2022-08-19T05:49:50;13.98;;;3.40;;
61385;SDS011;47256;18.904;-99.054;2022-08-19T05:52:18;6.30;;;3.35;;
61385;SDS011;47256;18.904;-99.054;2022-08-19T05:54:46;9.90;;;3.95;;
61385;SDS011;47256;18.904;-99.054;2022-08-19T05:57:14;12.73;;;3.47;;
61385;SDS011;47256;18.904;-99.054;2022-08-19T05:59:41;7.80;;;3.72;;
61385;SDS011;47256;18.904;-99.054;2022-08-19T06:02:10;7.13;;;3.35;;
61385;SDS011;47256;18.904;-99.054;2022-08-19T06:04:37;8.73;;;3.00;;
61385;SDS011;47256;18.904;-99.054;2022-08-19T06:07:05;5.78;;;3.05;;
61385;SDS011;47256;18.904;-99.054;2022-08-19T06:09:32;9.43;;;3.33;;
61385;SDS011;47256;18.904;-99.054;2022-08-19T06:11:59;8.52;;;3.65;;
61385;SDS011;47256;18.904;-99.054;2022-08-19T06:14:28;8.65;;;3.58;;
61385;SDS011;47256;18.904;-99.054;2022-08-19T06:16:57;5.10;;;3.53;;
61385;SDS011;47256;18.904;-99.054;2022-08-19T06:19:25;7.00;;;3.80;;
61385;SDS011;47256;18.904;-99.054;2022-08-19T06:21:56;9.05;;;3.90;;
61385;SDS011;47256;18.904;-99.054;2022-08-19T06:24:25;8.95;;;3.55;;
61385;SDS011;47256;18.904;-99.054;2022-08-19T06:26:54;8.73;;;3.25;;
61385;SDS011;47256;18.904;-99.054;2022-08-19T06:29:23;7.75;;;3.38;;
61385;SDS011;47256;18.904;-99.054;2022-08-19T06:31:53;4.63;;;3.28;;
61385;SDS011;47256;18.904;-99.054;2022-08-19T06:34:22;7.53;;;4.43;;
61385;SDS011;47256;18.904;-99.054;2022-08-19T06:36:50;5.75;;;3.00;;
61385;SDS011;47256;18.904;-99.054;2022-08-19T06:39:28;7.88;;;2.85;;
61385;SDS011;47256;18.904;-99.054;2022-08-19T06:41:59;5.43;;;2.40;;
61385;SDS011;47256;18.904;-99.054;2022-08-19T06:44:30;6.43;;;2.83;;
61385;SDS011;47256;18.904;-99.054;2022-08-19T06:47:00;3.92;;;2.40;;
61385;SDS011;47256;18.904;-99.054;2022-08-19T06:49:32;6.63;;;2.35;;
61385;SDS011;47256;18.904;-99.054;2022-08-19T06:52:00;4.10;;;3.47;;
61385;SDS011;47256;18.904;-99.054;2022-08-19T06:54:28;6.18;;;2.70;;
61385;SDS011;47256;18.904;-99.054;2022-08-19T06:56:57;6.68;;;2.15;;
61385;SDS011;47256;18.904;-99.054;2022-08-19T06:59:28;10.20;;;4.53;;
61385;SDS011;47256;18.904;-99.054;2022-08-19T07:01:59;34.53;;;9.95;;
61385;SDS011;47256;18.904;-99.054;2022-08-19T07:04:32;26.08;;;9.57;;
61385;SDS011;47256;18.904;-99.054;2022-08-19T07:07:02;35.10;;;10.43;;
61385;SDS011;47256;18.904;-99.054;2022-08-19T07:09:41;21.42;;;9.32;;
61385;SDS011;47256;18.904;-99.054;2022-08-19T07:12:10;12.27;;;3.72;;
61385;SDS011;47256;18.904;-99.054;2022-08-19T07:14:41;13.02;;;3.50;;
61385;SDS011;47256;18.904;-99.054;2022-08-19T07:17:10;8.55;;;4.07;;
61385;SDS011;47256;18.904;-99.054;2022-08-19T07:19:39;6.90;;;3.65;;
61385;SDS011;47256;18.904;-99.054;2022-08-19T07:22:08;12.10;;;3.30;;
61385;SDS011;47256;18.904;-99.054;2022-08-19T07:24:36;10.88;;;3.60;;
61385;SDS011;47256;18.904;-99.054;2022-08-19T07:27:04;14.02;;;4.32;;
61385;SDS011;47256;18.904;-99.054;2022-08-19T07:29:33;30.50;;;11.52;;
61385;SDS011;47256;18.904;-99.054;2022-08-19T07:32:02;45.28;;;13.45;;
61385;SDS011;47256;18.904;-99.054;2022-08-19T07:34:30;41.67;;;12.63;;
61385;SDS011;47256;18.904;-99.054;2022-08-19T07:37:04;29.92;;;10.15;;
61385;SDS011;47256;18.904;-99.054;2022-08-19T07:39:32;22.52;;;7.60;;
61385;SDS011;47256;18.904;-99.054;2022-08-19T07:42:02;17.13;;;6.45;;
61385;SDS011;47256;18.904;-99.054;2022-08-19T07:44:33;20.75;;;6.05;;
61385;SDS011;47256;18.904;-99.054;2022-08-19T07:47:01;15.77;;;5.95;;
61385;SDS011;47256;18.904;-99.054;2022-08-19T07:49:30;21.77;;;6.97;;
61385;SDS011;47256;18.904;-99.054;2022-08-19T07:51:58;27.80;;;10.77;;
61385;SDS011;47256;18.904;-99.054;2022-08-19T07:54:29;31.63;;;10.43;;
61385;SDS011;47256;18.904;-99.054;2022-08-19T07:57:00;17.33;;;7.05;;
61385;SDS011;47256;18.904;-99.054;2022-08-19T07:59:27;20.17;;;6.18;;
61385;SDS011;47256;18.904;-99.054;2022-08-19T08:01:55;15.10;;;6.07;;
61385;SDS011;47256;18.904;-99.054;2022-08-19T08:04:26;17.45;;;6.72;;
61385;SDS011;47256;18.904;-99.054;2022-08-19T08:07:13;12.40;;;5.50;;
61385;SDS011;47256;18.904;-99.054;2022-08-19T08:09:58;9.93;;;4.68;;
61385;SDS011;47256;18.904;-99.054;2022-08-19T08:12:29;8.80;;;4.10;;
61385;SDS011;47256;18.904;-99.054;2022-08-19T08:15:01;9.13;;;4.07;;
61385;SDS011;47256;18.904;-99.054;2022-08-19T08:17:33;7.60;;;4.43;;
61385;SDS011;47256;18.904;-99.054;2022-08-19T08:20:03;14.15;;;4.20;;
61385;SDS011;47256;18.904;-99.054;2022-08-19T08:22:33;8.60;;;4.40;;
61385;SDS011;47256;18.904;-99.054;2022-08-19T08:25:20;8.13;;;4.13;;
61385;SDS011;47256;18.904;-99.054;2022-08-19T08:27:50;7.05;;;3.92;;
61385;SDS011;47256;18.904;-99.054;2022-08-19T08:30:19;6.13;;;4.18;;
61385;SDS011;47256;18.904;-99.054;2022-08-19T08:32:48;9.23;;;3.95;;
61385;SDS011;47256;18.904;-99.054;2022-08-19T08:35:17;15.80;;;4.88;;
61385;SDS011;47256;18.904;-99.054;2022-08-19T08:37:46;12.10;;;3.70;;
61385;SDS011;47256;18.904;-99.054;2022-08-19T08:40:21;7.82;;;3.85;;
61385;SDS011;47256;18.904;-99.054;2022-08-19T08:43:24;3.97;;;3.58;;
61385;SDS011;47256;18.904;-99.054;2022-08-19T08:48:44;10.02;;;4.47;;
61385;SDS011;47256;18.904;-99.054;2022-08-19T08:51:34;17.80;;;6.65;;
61385;SDS011;47256;18.904;-99.054;2022-08-19T08:54:05;13.52;;;6.32;;
61385;SDS011;47256;18.904;-99.054;2022-08-19T08:56:38;20.05;;;7.60;;
61385;SDS011;47256;18.904;-99.054;2022-08-19T08:59:20;14.60;;;6.43;;
61385;SDS011;47256;18.904;-99.054;2022-08-19T09:01:59;11.50;;;5.57;;
61385;SDS011;47256;18.904;-99.054;2022-08-19T09:04:27;8.43;;;4.63;;
61385;SDS011;47256;18.904;-99.054;2022-08-19T09:07:09;9.20;;;5.22;;
61385;SDS011;47256;18.904;-99.054;2022-08-19T09:09:42;13.73;;;5.30;;
61385;SDS011;47256;18.904;-99.054;2022-08-19T09:15:06;8.82;;;4.90;;
61385;SDS011;47256;18.904;-99.054;2022-08-19T09:17:35;10.68;;;4.97;;
61385;SDS011;47256;18.904;-99.054;2022-08-19T09:20:06;7.85;;;4.35;;
61385;SDS011;47256;18.904;-99.054;2022-08-19T09:22:39;8.50;;;5.18;;
61385;SDS011;47256;18.904;-99.054;2022-08-19T09:25:12;7.43;;;4.40;;
61385;SDS011;47256;18.904;-99.054;2022-08-19T09:27:42;41.53;;;6.80;;
61385;SDS011;47256;18.904;-99.054;2022-08-19T09:30:11;7.57;;;4.40;;
61385;SDS011;47256;18.904;-99.054;2022-08-19T09:32:44;8.45;;;4.55;;
61385;SDS011;47256;18.904;-99.054;2022-08-19T09:35:12;9.43;;;5.13;;
61385;SDS011;47256;18.904;-99.054;2022-08-19T09:37:41;10.35;;;4.20;;
61385;SDS011;47256;18.904;-99.054;2022-08-19T09:40:09;11.63;;;4.95;;
61385;SDS011;47256;18.904;-99.054;2022-08-19T09:42:38;7.65;;;4.68;;
61385;SDS011;47256;18.904;-99.054;2022-08-19T09:45:05;9.07;;;4.85;;
61385;SDS011;47256;18.904;-99.054;2022-08-19T09:47:32;9.23;;;4.80;;
61385;SDS011;47256;18.904;-99.054;2022-08-19T09:50:04;11.60;;;5.22;;
61385;SDS011;47256;18.904;-99.054;2022-08-19T09:52:33;14.80;;;5.50;;
61385;SDS011;47256;18.904;-99.054;2022-08-19T09:55:06;11.00;;;5.72;;
61385;SDS011;47256;18.904;-99.054;2022-08-19T09:57:35;12.02;;;5.20;;
61385;SDS011;47256;18.904;-99.054;2022-08-19T10:00:04;12.20;;;5.35;;
61385;SDS011;47256;18.904;-99.054;2022-08-19T10:02:33;18.73;;;5.97;;
61385;SDS011;47256;18.904;-99.054;2022-08-19T10:05:00;11.18;;;4.70;;
61385;SDS011;47256;18.904;-99.054;2022-08-19T10:07:46;11.18;;;4.22;;
61385;SDS011;47256;18.904;-99.054;2022-08-19T10:10:13;8.20;;;4.20;;
61385;SDS011;47256;18.904;-99.054;2022-08-19T10:12:41;5.18;;;3.58;;
61385;SDS011;47256;18.904;-99.054;2022-08-19T10:15:12;10.50;;;3.67;;
61385;SDS011;47256;18.904;-99.054;2022-08-19T10:17:40;10.25;;;3.63;;
61385;SDS011;47256;18.904;-99.054;2022-08-19T10:20:07;12.98;;;4.32;;
61385;SDS011;47256;18.904;-99.054;2022-08-19T10:22:35;10.23;;;3.85;;
61385;SDS011;47256;18.904;-99.054;2022-08-19T10:25:04;11.48;;;4.07;;
61385;SDS011;47256;18.904;-99.054;2022-08-19T10:27:31;15.98;;;3.85;;
61385;SDS011;47256;18.904;-99.054;2022-08-19T10:29:59;11.68;;;3.80;;
61385;SDS011;47256;18.904;-99.054;2022-08-19T10:32:26;9.98;;;3.60;;
61385;SDS011;47256;18.904;-99.054;2022-08-19T10:34:55;8.02;;;3.42;;
61385;SDS011;47256;18.904;-99.054;2022-08-19T10:37:22;6.18;;;3.10;;
61385;SDS011;47256;18.904;-99.054;2022-08-19T10:39:49;4.78;;;3.33;;
61385;SDS011;47256;18.904;-99.054;2022-08-19T10:42:17;8.10;;;3.15;;
61385;SDS011;47256;18.904;-99.054;2022-08-19T10:44:44;10.10;;;3.30;;
61385;SDS011;47256;18.904;-99.054;2022-08-19T10:47:12;5.38;;;3.47;;
61385;SDS011;47256;18.904;-99.054;2022-08-19T10:49:39;5.60;;;3.38;;
61385;SDS011;47256;18.904;-99.054;2022-08-19T10:52:26;9.65;;;3.33;;
61385;SDS011;47256;18.904;-99.054;2022-08-19T10:55:04;6.35;;;2.75;;
61385;SDS011;47256;18.904;-99.054;2022-08-19T10:57:50;5.95;;;3.35;;
61385;SDS011;47256;18.904;-99.054;2022-08-19T11:00:21;9.95;;;3.10;;
61385;SDS011;47256;18.904;-99.054;2022-08-19T11:02:49;7.57;;;3.35;;
61385;SDS011;47256;18.904;-99.054;2022-08-19T11:05:17;7.80;;;3.72;;
61385;SDS011;47256;18.904;-99.054;2022-08-19T11:07:45;7.22;;;3.30;;
61385;SDS011;47256;18.904;-99.054;2022-08-19T11:10:13;20.77;;;7.35;;
61385;SDS011;47256;18.904;-99.054;2022-08-19T11:12:40;18.38;;;7.50;;
61385;SDS011;47256;18.904;-99.054;2022-08-19T11:15:08;48.28;;;13.57;;
61385;SDS011;47256;18.904;-99.054;2022-08-19T11:17:37;38.92;;;11.75;;
61385;SDS011;47256;18.904;-99.054;2022-08-19T11:20:10;30.35;;;8.77;;
61385;SDS011;47256;18.904;-99.054;2022-08-19T11:22:39;17.50;;;6.45;;
61385;SDS011;47256;18.904;-99.054;2022-08-19T11:25:08;17.38;;;5.18;;
61385;SDS011;47256;18.904;-99.054;2022-08-19T11:27:40;8.40;;;3.90;;
61385;SDS011;47256;18.904;-99.054;2022-08-19T11:30:09;9.65;;;3.58;;
61385;SDS011;47256;18.904;-99.054;2022-08-19T11:32:38;7.53;;;3.22;;
61385;SDS011;47256;18.904;-99.054;2022-08-19T11:35:06;8.25;;;3.78;;
61385;SDS011;47256;18.904;-99.054;2022-08-19T11:37:34;12.60;;;3.45;;
61385;SDS011;47256;18.904;-99.054;2022-08-19T11:40:04;9.57;;;3.42;;
61385;SDS011;47256;18.904;-99.054;2022-08-19T11:42:32;5.82;;;3.13;;
61385;SDS011;47256;18.904;-99.054;2022-08-19T11:45:18;14.80;;;4.47;;
61385;SDS011;47256;18.904;-99.054;2022-08-19T11:47:45;14.70;;;4.40;;
61385;SDS011;47256;18.904;-99.054;2022-08-19T11:50:13;7.85;;;3.20;;
61385;SDS011;47256;18.904;-99.054;2022-08-19T11:52:42;7.80;;;3.30;;
61385;SDS011;47256;18.904;-99.054;2022-08-19T11:55:11;12.95;;;3.42;;
61385;SDS011;47256;18.904;-99.054;2022-08-19T11:57:39;13.90;;;3.78;;
61385;SDS011;47256;18.904;-99.054;2022-08-19T12:00:09;8.98;;;3.70;;
61385;SDS011;47256;18.904;-99.054;2022-08-19T12:02:38;8.20;;;3.35;;
61385;SDS011;47256;18.904;-99.054;2022-08-19T12:05:06;8.05;;;3.33;;
61385;SDS011;47256;18.904;-99.054;2022-08-19T12:07:33;9.15;;;3.65;;
61385;SDS011;47256;18.904;-99.054;2022-08-19T12:10:01;10.73;;;3.75;;
61385;SDS011;47256;18.904;-99.054;2022-08-19T12:12:28;15.60;;;3.95;;
61385;SDS011;47256;18.904;-99.054;2022-08-19T12:14:56;9.95;;;3.25;;
61385;SDS011;47256;18.904;-99.054;2022-08-19T12:17:24;8.48;;;4.13;;
61385;SDS011;47256;18.904;-99.054;2022-08-19T12:19:53;14.95;;;4.25;;
61385;SDS011;47256;18.904;-99.054;2022-08-19T12:22:21;20.42;;;6.43;;
61385;SDS011;47256;18.904;-99.054;2022-08-19T12:24:48;55.90;;;14.43;;
61385;SDS011;47256;18.904;-99.054;2022-08-19T12:27:18;56.60;;;17.55;;
61385;SDS011;47256;18.904;-99.054;2022-08-19T12:29:45;42.22;;;13.30;;
61385;SDS011;47256;18.904;-99.054;2022-08-19T12:32:12;31.70;;;9.77;;
61385;SDS011;47256;18.904;-99.054;2022-08-19T12:34:39;10.10;;;5.63;;
61385;SDS011;47256;18.904;-99.054;2022-08-19T12:37:07;23.02;;;7.00;;
61385;SDS011;47256;18.904;-99.054;2022-08-19T12:39:35;17.25;;;5.15;;
61385;SDS011;47256;18.904;-99.054;2022-08-19T12:42:04;18.13;;;5.90;;
61385;SDS011;47256;18.904;-99.054;2022-08-19T12:44:31;30.42;;;8.70;;
61385;SDS011;47256;18.904;-99.054;2022-08-19T12:46:58;61.00;;;16.75;;
61385;SDS011;47256;18.904;-99.054;2022-08-19T12:49:27;50.47;;;17.52;;
61385;SDS011;47256;18.904;-99.054;2022-08-19T12:51:55;31.55;;;10.95;;
61385;SDS011;47256;18.904;-99.054;2022-08-19T12:54:23;28.75;;;9.18;;
61385;SDS011;47256;18.904;-99.054;2022-08-19T12:56:51;12.77;;;5.35;;
61385;SDS011;47256;18.904;-99.054;2022-08-19T12:59:18;12.88;;;5.53;;
61385;SDS011;47256;18.904;-99.054;2022-08-19T13:01:45;18.70;;;6.00;;
61385;SDS011;47256;18.904;-99.054;2022-08-19T13:04:12;15.25;;;5.97;;
61385;SDS011;47256;18.904;-99.054;2022-08-19T13:06:39;7.00;;;3.75;;
61385;SDS011;47256;18.904;-99.054;2022-08-19T13:09:06;9.23;;;3.85;;
61385;SDS011;47256;18.904;-99.054;2022-08-19T13:11:33;8.02;;;4.70;;
61385;SDS011;47256;18.904;-99.054;2022-08-19T13:14:01;11.25;;;4.32;;
61385;SDS011;47256;18.904;-99.054;2022-08-19T13:16:30;10.23;;;4.63;;
61385;SDS011;47256;18.904;-99.054;2022-08-19T13:18:57;10.88;;;5.20;;
61385;SDS011;47256;18.904;-99.054;2022-08-19T13:21:25;18.20;;;6.10;;
61385;SDS011;47256;18.904;-99.054;2022-08-19T13:23:56;12.18;;;4.75;;
61385;SDS011;47256;18.904;-99.054;2022-08-19T13:26:24;11.48;;;4.82;;
61385;SDS011;47256;18.904;-99.054;2022-08-19T13:28:51;10.85;;;5.10;;
61385;SDS011;47256;18.904;-99.054;2022-08-19T13:31:39;14.50;;;5.78;;
61385;SDS011;47256;18.904;-99.054;2022-08-19T13:34:33;33.88;;;6.10;;
61385;SDS011;47256;18.904;-99.054;2022-08-19T13:37:03;24.20;;;5.63;;
61385;SDS011;47256;18.904;-99.054;2022-08-19T13:39:32;10.30;;;4.65;;
61385;SDS011;47256;18.904;-99.054;2022-08-19T13:42:00;16.23;;;5.15;;
61385;SDS011;47256;18.904;-99.054;2022-08-19T13:44:28;14.63;;;4.25;;
61385;SDS011;47256;18.904;-99.054;2022-08-19T13:47:00;10.15;;;5.13;;
61385;SDS011;47256;18.904;-99.054;2022-08-19T13:49:33;13.85;;;5.15;;
61385;SDS011;47256;18.904;-99.054;2022-08-19T13:52:02;13.40;;;4.60;;
61385;SDS011;47256;18.904;-99.054;2022-08-19T13:54:31;12.30;;;6.00;;
61385;SDS011;47256;18.904;-99.054;2022-08-19T13:56:58;8.27;;;4.70;;
61385;SDS011;47256;18.904;-99.054;2022-08-19T13:59:26;10.98;;;5.45;;
61385;SDS011;47256;18.904;-99.054;2022-08-19T14:01:57;17.17;;;6.18;;
61385;SDS011;47256;18.904;-99.054;2022-08-19T14:04:25;15.00;;;5.95;;
61385;SDS011;47256;18.904;-99.054;2022-08-19T14:06:52;14.82;;;5.40;;
61385;SDS011;47256;18.904;-99.054;2022-08-19T14:09:19;15.60;;;5.15;;
61385;SDS011;47256;18.904;-99.054;2022-08-19T14:11:46;44.30;;;8.63;;
61385;SDS011;47256;18.904;-99.054;2022-08-19T14:14:16;13.38;;;6.57;;
61385;SDS011;47256;18.904;-99.054;2022-08-19T14:16:43;14.48;;;5.82;;
61385;SDS011;47256;18.904;-99.054;2022-08-19T14:19:10;12.82;;;5.35;;
61385;SDS011;47256;18.904;-99.054;2022-08-19T14:21:37;18.58;;;5.78;;
61385;SDS011;47256;18.904;-99.054;2022-08-19T14:24:05;18.10;;;5.72;;
61385;SDS011;47256;18.904;-99.054;2022-08-19T14:26:32;12.05;;;5.68;;
61385;SDS011;47256;18.904;-99.054;2022-08-19T14:28:59;10.07;;;4.80;;
61385;SDS011;47256;18.904;-99.054;2022-08-19T14:31:27;10.18;;;5.20;;
61385;SDS011;47256;18.904;-99.054;2022-08-19T14:33:54;8.57;;;4.60;;